Paddockwood, Canada
Current Conditions -  °F | °C
As of 12:00 AM on Wednesday 22 Oct 2014 (Local Time) from CYPA Reporting Station
Broken Clouds Broken Clouds  
Wind Chill: 54°   Ceiling: 11000
Heat Index: 54°   Visibility: 15mi
Dew Point: 43°   Wind: 8mph
Humidity: 67%   Direction: 340°NNW
Pressure: 29.58"   Gusts: NA
Location:  53.5°N, 105.57°W
Report Text: CYPA 220600Z 34007KT 330V050 15SM BKN110 BKN220 12/06 A2958 RMK AC5CI2 SLP023 DENSITY ALT 1700FT
Loading
Personal Weather Stations






























Interactive Weather Map
Tropical Storm Tracking
New forecast layout! Learn more

10-Day Weather Forecast

Advertisements
Track Severe Weather on mobile